createdAt,value
2018-06-04T00:01:32.699Z,18.00
2018-06-04T00:04:01.425Z,17.93
2018-06-04T00:06:29.811Z,18.10
2018-06-04T00:08:58.757Z,17.57
2018-06-04T00:11:27.868Z,17.63
2018-06-04T00:13:56.553Z,18.07
2018-06-04T00:16:24.931Z,18.70
2018-06-04T00:18:53.827Z,19.23
2018-06-04T00:21:22.563Z,17.43
2018-06-04T00:23:51.116Z,18.87
2018-06-04T00:26:19.870Z,18.23
2018-06-04T00:28:48.248Z,18.70
2018-06-04T00:31:16.624Z,18.17
2018-06-04T00:33:45.074Z,18.47
2018-06-04T00:36:13.437Z,20.23
2018-06-04T00:38:41.889Z,19.43
2018-06-04T00:41:10.328Z,19.90
2018-06-04T00:43:39.568Z,18.83
2018-06-04T00:46:07.923Z,18.53
2018-06-04T00:48:36.290Z,20.10
2018-06-04T00:51:04.794Z,19.00
2018-06-04T00:53:33.169Z,18.67
2018-06-04T00:56:13.390Z,18.27
2018-06-04T00:58:42.527Z,17.83
2018-06-04T01:01:10.882Z,18.70
2018-06-04T01:03:39.380Z,20.03
2018-06-04T01:06:07.771Z,20.93
2018-06-04T01:08:36.287Z,20.40
2018-06-04T01:11:04.744Z,20.73
2018-06-04T01:13:33.096Z,20.13
2018-06-04T01:16:01.523Z,20.50
2018-06-04T01:18:29.966Z,19.30
2018-06-04T01:20:59.381Z,19.67
2018-06-04T01:23:27.808Z,19.30
2018-06-04T01:25:56.920Z,19.83
2018-06-04T01:28:25.310Z,20.10
2018-06-04T01:30:53.679Z,19.70
2018-06-04T01:33:22.792Z,20.83
2018-06-04T01:35:51.163Z,21.83
2018-06-04T01:38:20.261Z,20.50
2018-06-04T01:40:48.626Z,20.53
2018-06-04T01:43:17.050Z,22.23
2018-06-04T01:45:45.482Z,20.67
2018-06-04T01:48:14.624Z,21.70
2018-06-04T01:50:42.972Z,20.83
2018-06-04T01:53:11.365Z,22.13
2018-06-04T01:55:39.723Z,22.63
2018-06-04T01:58:08.850Z,22.73
2018-06-04T02:00:37.241Z,20.73
2018-06-04T02:03:05.615Z,21.20
2018-06-04T02:05:33.969Z,23.50
2018-06-04T02:08:02.327Z,23.27
2018-06-04T02:10:32.087Z,24.13
2018-06-04T02:13:00.455Z,25.33
2018-06-04T02:15:28.807Z,23.80
2018-06-04T02:17:57.947Z,23.80
2018-06-04T02:20:26.298Z,22.50
2018-06-04T02:22:54.655Z,22.73
2018-06-04T02:25:23.784Z,80.27
2018-06-04T02:27:52.152Z,57.17
2018-06-04T02:30:20.511Z,31.23
2018-06-04T02:32:49.735Z,25.20
2018-06-04T02:35:18.087Z,23.63
2018-06-04T02:37:47.218Z,22.33
2018-06-04T02:40:15.818Z,60.23
2018-06-04T02:42:44.170Z,80.13
2018-06-04T02:45:12.571Z,35.40
2018-06-04T02:47:40.918Z,23.37
2018-06-04T02:50:09.940Z,21.37
2018-06-04T02:52:38.318Z,21.77
2018-06-04T02:55:06.679Z,22.00
2018-06-04T02:57:35.089Z,26.27
2018-06-04T03:00:03.443Z,23.13
2018-06-04T03:02:31.994Z,22.97
2018-06-04T03:05:00.429Z,25.53
2018-06-04T03:07:28.781Z,23.00
2018-06-04T03:09:57.180Z,24.13
2018-06-04T03:12:25.538Z,23.60
2018-06-04T03:14:53.944Z,23.10
2018-06-04T03:17:22.317Z,23.03
2018-06-04T03:19:50.723Z,25.27
2018-06-04T03:22:19.071Z,26.80
2018-06-04T03:24:47.417Z,25.30
2018-06-04T03:27:16.545Z,25.00
2018-06-04T03:29:44.894Z,23.77
2018-06-04T03:32:14.071Z,24.20
2018-06-04T03:34:42.544Z,24.60
2018-06-04T03:37:10.916Z,24.07
2018-06-04T03:39:39.291Z,23.43
2018-06-04T03:42:07.710Z,23.57
2018-06-04T03:44:36.831Z,23.87
2018-06-04T03:47:05.929Z,22.83
2018-06-04T03:49:34.326Z,24.13
2018-06-04T03:52:02.791Z,26.50
2018-06-04T03:54:31.291Z,23.97
2018-06-04T03:56:59.663Z,24.70
2018-06-04T03:59:28.031Z,23.67
2018-06-04T04:01:56.422Z,25.43
2018-06-04T04:04:24.790Z,23.93
2018-06-04T04:06:53.397Z,24.53
2018-06-04T04:09:21.728Z,28.20
2018-06-04T04:11:50.975Z,28.57
2018-06-04T04:14:19.299Z,26.53
2018-06-04T04:16:48.606Z,27.73
2018-06-04T04:19:17.756Z,27.17
2018-06-04T04:21:46.109Z,26.33
2018-06-04T04:24:14.490Z,28.23
2018-06-04T04:26:42.879Z,26.13
2018-06-04T04:29:11.309Z,25.70
2018-06-04T04:31:39.686Z,27.43
2018-06-04T04:34:08.048Z,26.13
2018-06-04T04:36:36.499Z,25.00
2018-06-04T04:39:04.881Z,27.80
2018-06-04T04:41:33.251Z,27.73
2018-06-04T04:44:01.737Z,29.07
2018-06-04T04:46:31.107Z,27.70
2018-06-04T04:49:00.254Z,27.77
2018-06-04T04:51:28.631Z,27.30
2018-06-04T04:53:57.417Z,27.37
2018-06-04T04:56:25.789Z,29.30
2018-06-04T04:58:54.270Z,29.43
2018-06-04T05:01:22.643Z,28.03
2018-06-04T05:03:50.994Z,33.73
2018-06-04T05:06:20.125Z,29.17
2018-06-04T05:08:48.476Z,27.60
2018-06-04T05:11:17.597Z,27.83
2018-06-04T05:13:45.959Z,28.23
2018-06-04T05:16:14.306Z,29.43
2018-06-04T05:18:42.682Z,30.03
2018-06-04T05:21:11.041Z,26.70
2018-06-04T05:23:39.407Z,28.77
2018-06-04T05:26:07.869Z,30.07
2018-06-04T05:28:36.254Z,29.37
2018-06-04T05:31:05.460Z,27.30
2018-06-04T05:33:33.819Z,28.40
2018-06-04T05:36:02.162Z,28.50
2018-06-04T05:38:31.297Z,28.37
2018-06-04T05:40:59.703Z,28.27
2018-06-04T05:43:28.226Z,28.57
2018-06-04T05:45:57.343Z,27.53
2018-06-04T05:48:25.705Z,26.53
2018-06-04T05:50:54.994Z,27.17
2018-06-04T05:53:23.338Z,25.40
2018-06-04T05:55:51.763Z,27.23
2018-06-04T05:58:20.119Z,25.90
2018-06-04T06:00:48.567Z,26.80
2018-06-04T06:03:16.912Z,28.83
2018-06-04T06:05:46.955Z,27.57
2018-06-04T06:08:15.948Z,26.27
2018-06-04T06:10:45.343Z,26.17
2018-06-04T06:13:13.715Z,27.07
2018-06-04T06:15:42.825Z,30.30
2018-06-04T06:18:11.270Z,29.50
2018-06-04T06:20:40.398Z,28.43
2018-06-04T06:23:08.907Z,27.10
2018-06-04T06:25:37.262Z,27.37
2018-06-04T06:28:05.727Z,25.90
2018-06-04T06:30:36.614Z,27.90
2018-06-04T06:33:05.832Z,27.33
2018-06-04T06:35:34.206Z,26.67
2018-06-04T06:38:02.546Z,25.58
2018-06-04T06:40:30.934Z,22.73
2018-06-04T06:42:59.360Z,24.17
2018-06-04T06:45:27.865Z,23.67
2018-06-04T06:47:56.966Z,23.05
2018-06-04T06:50:26.121Z,23.45
2018-06-04T06:52:54.468Z,23.23
2018-06-04T06:55:22.829Z,21.85
2018-06-04T06:57:51.224Z,24.90
2018-06-04T07:00:19.723Z,22.23
2018-06-04T07:02:48.053Z,26.25
2018-06-04T07:05:17.180Z,23.75
2018-06-04T07:07:45.542Z,25.67
2018-06-04T07:10:13.920Z,22.55
2018-06-04T07:12:43.214Z,24.10
2018-06-04T07:15:11.588Z,26.98
2018-06-04T07:17:40.721Z,23.25
2018-06-04T07:20:09.121Z,25.88
2018-06-04T07:22:37.573Z,24.08
2018-06-04T07:25:05.914Z,24.10
2018-06-04T07:27:35.043Z,25.08
2018-06-04T07:30:03.575Z,23.10
2018-06-04T07:32:32.064Z,25.65
2018-06-04T07:35:00.423Z,24.45
2018-06-04T07:37:29.704Z,26.85
2018-06-04T07:39:58.174Z,23.85
2018-06-04T07:42:26.795Z,25.73
2018-06-04T07:44:55.120Z,24.92
2018-06-04T07:47:23.486Z,26.83
2018-06-04T07:49:52.649Z,25.02
2018-06-04T07:52:21.096Z,26.85
2018-06-04T07:54:49.491Z,26.90
2018-06-04T07:57:17.906Z,25.77
2018-06-04T07:59:46.599Z,24.90
2018-06-04T08:02:14.947Z,23.62
2018-06-04T08:04:43.294Z,26.67
2018-06-04T08:07:12.215Z,21.15
2018-06-04T08:09:40.893Z,21.83
2018-06-04T08:12:09.259Z,25.15
2018-06-04T08:14:37.618Z,25.33
2018-06-04T08:17:06.023Z,26.45
2018-06-04T08:19:34.480Z,23.25
2018-06-04T08:22:02.826Z,24.23
2018-06-04T08:24:31.253Z,24.23
2018-06-04T08:26:59.626Z,26.23
2018-06-04T08:29:28.021Z,25.60
2018-06-04T08:31:56.515Z,27.92
2018-06-04T08:34:24.865Z,27.37
2018-06-04T08:36:53.254Z,28.85
2018-06-04T08:39:21.647Z,26.77
2018-06-04T08:41:51.538Z,26.77
2018-06-04T08:44:19.917Z,24.90
2018-06-04T08:46:48.321Z,24.50
2018-06-04T08:49:16.695Z,24.87
2018-06-04T08:51:45.636Z,25.77
2018-06-04T08:54:14.051Z,23.25
2018-06-04T08:56:42.399Z,25.33
2018-06-04T08:59:11.526Z,25.98
2018-06-04T09:01:39.934Z,22.67
2018-06-04T09:04:08.301Z,23.20
2018-06-04T09:06:36.642Z,22.75
2018-06-04T09:09:06.092Z,21.92
2018-06-04T09:11:34.423Z,20.92
2018-06-04T09:14:02.778Z,19.85
2018-06-04T09:16:31.117Z,17.65
2018-06-04T09:18:59.539Z,18.83
2018-06-04T09:21:27.993Z,20.62
2018-06-04T09:23:56.575Z,19.35
2018-06-04T09:26:24.911Z,18.33
2018-06-04T09:28:54.135Z,20.05
2018-06-04T09:31:22.525Z,18.77
2018-06-04T09:33:50.879Z,19.37
2018-06-04T09:36:19.280Z,19.33
2018-06-04T09:38:48.475Z,18.83
2018-06-04T09:41:16.818Z,15.98
2018-06-04T09:43:45.942Z,17.65
2018-06-04T09:46:14.387Z,15.43
2018-06-04T09:48:43.514Z,14.30
2018-06-04T09:51:11.937Z,15.43
2018-06-04T09:53:40.444Z,16.60
2018-06-04T09:56:08.790Z,18.37
2018-06-04T09:58:37.261Z,15.45
2018-06-04T10:01:05.601Z,17.85
2018-06-04T10:03:36.011Z,17.35
2018-06-04T10:06:04.389Z,17.23
2018-06-04T10:08:33.636Z,18.90
2018-06-04T10:11:02.100Z,15.20
2018-06-04T10:13:30.446Z,15.80
2018-06-04T10:15:58.893Z,15.15
2018-06-04T10:18:27.254Z,18.05
2018-06-04T10:20:55.622Z,15.65
2018-06-04T10:23:23.962Z,16.83
2018-06-04T10:25:52.375Z,17.87
2018-06-04T10:28:20.849Z,16.05
2018-06-04T10:30:49.234Z,19.70
2018-06-04T10:33:17.596Z,19.95
2018-06-04T10:35:46.720Z,18.75
2018-06-04T10:38:15.087Z,19.40
2018-06-04T10:40:43.451Z,17.98
2018-06-04T10:43:12.587Z,18.05
2018-06-04T10:45:40.971Z,16.52
2018-06-04T10:48:09.366Z,17.08
2018-06-04T10:50:37.858Z,16.15
2018-06-04T10:53:06.443Z,17.10
2018-06-04T10:55:34.925Z,19.65
2018-06-04T10:58:03.311Z,19.87
2018-06-04T11:00:31.764Z,16.77
2018-06-04T11:03:00.650Z,16.70
2018-06-04T11:05:29.345Z,17.45
2018-06-04T11:07:57.753Z,16.95
2018-06-04T11:10:26.987Z,12.77
2018-06-04T11:12:55.334Z,12.48
2018-06-04T11:15:24.355Z,13.15
2018-06-04T11:17:53.240Z,15.82
2018-06-04T11:20:21.663Z,17.40
2018-06-04T11:22:50.354Z,15.40
2018-06-04T11:25:19.632Z,17.10
2018-06-04T11:27:48.290Z,16.90
2018-06-04T11:30:16.722Z,15.15
2018-06-04T11:32:45.726Z,19.15
2018-06-04T11:35:14.186Z,16.37
2018-06-04T11:37:42.650Z,16.00
2018-06-04T11:40:11.545Z,15.50
2018-06-04T11:42:39.938Z,15.48
2018-06-04T11:45:08.420Z,15.00
2018-06-04T11:47:37.154Z,12.57
2018-06-04T11:50:05.639Z,13.40
2018-06-04T11:52:34.253Z,13.18
2018-06-04T11:55:02.667Z,12.77
2018-06-04T11:57:31.468Z,11.70
2018-06-04T11:59:59.870Z,10.45
2018-06-04T12:02:28.313Z,10.50
2018-06-04T12:04:56.781Z,13.57
2018-06-04T12:07:25.376Z,13.45
2018-06-04T12:09:53.955Z,13.90
2018-06-04T12:12:22.382Z,15.88
2018-06-04T12:14:51.095Z,13.55
2018-06-04T12:17:19.469Z,14.50
2018-06-04T12:19:49.111Z,15.90
2018-06-04T12:22:17.602Z,14.90
2018-06-04T12:24:46.395Z,16.05
2018-06-04T12:27:14.775Z,15.23
2018-06-04T12:29:43.859Z,14.57
2018-06-04T12:32:12.580Z,15.40
2018-06-04T12:34:41.035Z,15.23
2018-06-04T12:37:09.469Z,13.27
2018-06-04T12:39:38.603Z,17.75
2018-06-04T12:42:06.953Z,18.45
2018-06-04T12:44:35.351Z,19.17
2018-06-04T12:47:03.714Z,18.00
2018-06-04T12:49:32.077Z,17.70
2018-06-04T12:52:01.493Z,17.60
2018-06-04T12:54:30.728Z,15.70
2018-06-04T12:56:59.248Z,15.25
2018-06-04T12:59:27.731Z,15.20
2018-06-04T13:01:56.189Z,13.98
2018-06-04T13:04:24.547Z,11.75
2018-06-04T13:06:52.972Z,15.55
2018-06-04T13:09:21.406Z,13.48
2018-06-04T13:11:49.816Z,15.13
2018-06-04T13:14:18.161Z,16.92
2018-06-04T13:16:46.536Z,15.80
2018-06-04T13:19:15.198Z,14.25
2018-06-04T13:21:44.305Z,13.88
2018-06-04T13:24:12.763Z,15.15
2018-06-04T13:26:41.104Z,15.32
2018-06-04T13:29:09.580Z,14.32
2018-06-04T13:31:37.964Z,14.40
2018-06-04T13:34:06.322Z,12.57
2018-06-04T13:36:35.331Z,15.55
2018-06-04T13:39:04.281Z,14.27
2018-06-04T13:41:32.698Z,14.87
2018-06-04T13:44:01.074Z,13.20
2018-06-04T13:46:29.459Z,11.68
2018-06-04T13:48:57.916Z,11.90
2018-06-04T13:51:26.829Z,12.35
2018-06-04T13:53:56.025Z,10.95
2018-06-04T13:56:24.595Z,12.43
2018-06-04T13:58:53.342Z,12.10
2018-06-04T14:01:22.812Z,10.68
2018-06-04T14:03:51.293Z,12.82
2018-06-04T14:06:19.687Z,11.10
2018-06-04T14:08:48.093Z,11.40
2018-06-04T14:11:16.501Z,11.15
2018-06-04T14:13:44.906Z,11.05
2018-06-04T14:16:13.276Z,11.18
2018-06-04T14:18:41.631Z,9.55
2018-06-04T14:21:10.799Z,8.85
2018-06-04T14:23:39.205Z,8.68
2018-06-04T14:26:08.342Z,13.10
2018-06-04T14:28:36.796Z,10.75
2018-06-04T14:31:05.192Z,11.52
2018-06-04T14:33:33.585Z,8.80
2018-06-04T14:36:01.963Z,9.82
2018-06-04T14:38:30.362Z,8.82
2018-06-04T14:40:58.837Z,9.18
2018-06-04T14:43:27.263Z,9.52
2018-06-04T14:45:55.675Z,10.05
2018-06-04T14:48:24.027Z,10.98
2018-06-04T14:50:52.437Z,12.13
2018-06-04T14:53:20.818Z,11.88
2018-06-04T14:55:49.191Z,9.40
2018-06-04T14:58:17.599Z,10.63
2018-06-04T15:00:45.998Z,9.80
2018-06-04T15:03:14.338Z,11.20
2018-06-04T15:05:42.708Z,8.88
2018-06-04T15:08:11.714Z,9.55
2018-06-04T15:10:42.651Z,10.77
2018-06-04T15:13:11.082Z,11.90
2018-06-04T15:15:40.231Z,10.50
2018-06-04T15:18:08.562Z,10.30
2018-06-04T15:20:37.710Z,10.10
2018-06-04T15:23:06.058Z,9.13
2018-06-04T15:25:34.497Z,9.40
2018-06-04T15:28:03.320Z,10.73
2018-06-04T15:30:31.658Z,9.50
2018-06-04T15:33:00.087Z,7.95
2018-06-04T15:35:29.382Z,10.98
2018-06-04T15:37:57.834Z,11.68
2018-06-04T15:40:26.160Z,10.98
2018-06-04T15:42:54.545Z,10.50
2018-06-04T15:45:22.942Z,12.05
2018-06-04T15:47:51.306Z,11.65
2018-06-04T15:50:19.695Z,9.90
2018-06-04T15:52:48.002Z,10.23
2018-06-04T15:55:16.361Z,11.98
2018-06-04T15:57:44.714Z,11.82
2018-06-04T16:00:13.122Z,11.50
2018-06-04T16:02:41.463Z,11.07
2018-06-04T16:05:09.833Z,10.00
2018-06-04T16:07:38.452Z,10.98
2018-06-04T16:10:06.817Z,9.63
2018-06-04T16:12:35.211Z,11.73
2018-06-04T16:15:03.546Z,10.30
2018-06-04T16:17:32.714Z,9.63
2018-06-04T16:20:01.156Z,11.00
2018-06-04T16:22:29.526Z,9.95
2018-06-04T16:24:58.116Z,9.77
2018-06-04T16:27:26.598Z,10.50
2018-06-04T16:29:55.123Z,11.18
2018-06-04T16:32:23.470Z,11.65
2018-06-04T16:34:51.939Z,10.65
2018-06-04T16:37:20.329Z,10.23
2018-06-04T16:39:48.705Z,10.60
2018-06-04T16:42:17.059Z,8.43
2018-06-04T16:44:45.475Z,9.20
2018-06-04T16:47:14.103Z,9.10
2018-06-04T16:49:42.450Z,9.80
2018-06-04T16:52:10.908Z,9.02
2018-06-04T16:54:39.282Z,9.35
2018-06-04T16:57:07.677Z,11.32
2018-06-04T16:59:36.112Z,10.90
2018-06-04T17:02:04.442Z,10.27
2018-06-04T17:04:32.896Z,9.30
2018-06-04T17:07:01.380Z,9.45
2018-06-04T17:09:29.734Z,9.98
2018-06-04T17:11:58.845Z,9.00
2018-06-04T17:14:27.199Z,9.98
2018-06-04T17:16:56.342Z,10.55
2018-06-04T17:19:24.705Z,11.45
2018-06-04T17:21:53.093Z,10.18
2018-06-04T17:24:21.462Z,10.07
2018-06-04T17:26:49.845Z,9.82
2018-06-04T17:29:18.238Z,11.00
2018-06-04T17:31:46.608Z,11.77
2018-06-04T17:34:15.006Z,10.60
2018-06-04T17:36:43.479Z,9.55
2018-06-04T17:39:11.858Z,10.40
2018-06-04T17:41:40.216Z,9.07
2018-06-04T17:44:08.636Z,11.12
2018-06-04T17:46:37.924Z,10.63
2018-06-04T17:49:06.304Z,11.05
2018-06-04T17:51:35.220Z,10.52
2018-06-04T17:54:03.575Z,11.12
2018-06-04T17:56:31.981Z,9.85
2018-06-04T17:59:00.343Z,10.80
2018-06-04T18:01:28.709Z,10.70
2018-06-04T18:03:57.147Z,12.90
2018-06-04T18:06:26.280Z,13.07
2018-06-04T18:08:54.637Z,12.32
2018-06-04T18:11:23.038Z,15.32
2018-06-04T18:13:51.413Z,15.00
2018-06-04T18:16:19.765Z,23.10
2018-06-04T18:18:49.216Z,14.98
2018-06-04T18:21:17.572Z,15.05
2018-06-04T18:23:45.914Z,16.27
2018-06-04T18:26:15.031Z,14.57
2018-06-04T18:28:43.765Z,15.25
2018-06-04T18:31:12.438Z,15.13
2018-06-04T18:33:40.791Z,14.00
2018-06-04T18:36:09.390Z,13.20
2018-06-04T18:38:37.983Z,14.27
2018-06-04T18:41:06.698Z,16.00
2018-06-04T18:43:35.062Z,15.05
2018-06-04T18:46:03.612Z,15.73
2018-06-04T18:48:32.072Z,15.25
2018-06-04T18:51:01.752Z,14.57
2018-06-04T18:53:30.126Z,15.55
2018-06-04T18:55:58.651Z,17.00
2018-06-04T18:58:27.091Z,18.45
2018-06-04T19:00:56.318Z,18.40
2018-06-04T19:03:24.723Z,16.65
2018-06-04T19:05:53.284Z,17.95
2018-06-04T19:08:22.575Z,24.45
2018-06-04T19:10:51.195Z,20.33
2018-06-04T19:13:19.606Z,19.30
2018-06-04T19:15:48.126Z,18.42
2018-06-04T19:18:16.764Z,19.55
2018-06-04T19:20:45.437Z,20.92
2018-06-04T19:23:14.070Z,18.37
2018-06-04T19:25:42.557Z,18.73
2018-06-04T19:28:10.943Z,20.33
2018-06-04T19:30:39.378Z,18.83
2018-06-04T19:33:08.087Z,19.73
2018-06-04T19:35:37.619Z,18.87
2018-06-04T19:38:06.454Z,19.00
2018-06-04T19:40:34.847Z,18.43
2018-06-04T19:43:04.030Z,19.47
2018-06-04T19:45:32.470Z,16.70
2018-06-04T19:48:02.098Z,18.13
2018-06-04T19:50:31.480Z,19.50
2018-06-04T19:53:00.415Z,19.23
2018-06-04T19:55:28.839Z,21.20
2018-06-04T19:57:57.627Z,18.27
2018-06-04T20:00:26.194Z,20.10
2018-06-04T20:02:54.613Z,21.33
2018-06-04T20:05:24.233Z,24.70
2018-06-04T20:07:52.677Z,21.53
2018-06-04T20:10:21.018Z,21.27
2018-06-04T20:12:49.399Z,20.37
2018-06-04T20:15:17.747Z,21.97
2018-06-04T20:17:46.249Z,22.47
2018-06-04T20:20:15.250Z,20.20
2018-06-04T20:22:43.612Z,19.90
2018-06-04T20:25:12.715Z,23.10
2018-06-04T20:27:41.231Z,21.03
2018-06-04T20:30:09.584Z,19.53
2018-06-04T20:32:37.999Z,20.00
2018-06-04T20:35:06.362Z,18.20
2018-06-04T20:37:34.845Z,20.47
2018-06-04T20:40:03.188Z,21.87
2018-06-04T20:42:31.622Z,20.10
2018-06-04T20:45:00.041Z,19.87
2018-06-04T20:47:29.175Z,18.63
2018-06-04T20:49:57.592Z,18.80
2018-06-04T20:52:26.054Z,19.03
2018-06-04T20:54:54.387Z,20.63
2018-06-04T20:57:22.875Z,18.30
2018-06-04T20:59:51.233Z,18.93
2018-06-04T21:02:20.382Z,18.10
2018-06-04T21:04:48.734Z,16.50
2018-06-04T21:07:17.113Z,17.20
2018-06-04T21:09:45.514Z,17.37
2018-06-04T21:12:13.871Z,19.73
2018-06-04T21:14:42.250Z,18.00
2018-06-04T21:17:10.651Z,18.57
2018-06-04T21:19:39.008Z,18.27
2018-06-04T21:22:07.410Z,19.37
2018-06-04T21:24:36.837Z,18.97
2018-06-04T21:27:05.189Z,18.77
2018-06-04T21:29:33.547Z,19.43
2018-06-04T21:32:01.948Z,20.10
2018-06-04T21:34:30.316Z,20.07
2018-06-04T21:36:58.722Z,20.03
2018-06-04T21:39:27.084Z,19.30
2018-06-04T21:41:55.516Z,18.33
2018-06-04T21:44:24.633Z,20.37
2018-06-04T21:46:53.002Z,19.40
2018-06-04T21:49:22.310Z,19.87
2018-06-04T21:51:50.726Z,19.37
2018-06-04T21:54:19.188Z,18.83
2018-06-04T21:56:47.549Z,20.53
2018-06-04T21:59:16.897Z,19.63
2018-06-04T22:01:45.315Z,18.47
2018-06-04T22:04:14.522Z,18.67
2018-06-04T22:06:43.766Z,25.77
2018-06-04T22:09:12.134Z,19.20
2018-06-04T22:11:40.488Z,18.03
2018-06-04T22:14:08.913Z,18.90
2018-06-04T22:16:37.308Z,17.63
2018-06-04T22:19:05.781Z,17.80
2018-06-04T22:21:34.171Z,16.40
2018-06-04T22:24:02.519Z,17.67
2018-06-04T22:26:30.952Z,16.40
2018-06-04T22:28:59.299Z,16.90
2018-06-04T22:31:28.494Z,17.30
2018-06-04T22:33:56.922Z,16.47
2018-06-04T22:36:26.157Z,16.60
2018-06-04T22:38:54.602Z,17.63
2018-06-04T22:41:23.736Z,15.47
2018-06-04T22:43:52.181Z,14.13
2018-06-04T22:46:20.538Z,16.37
2018-06-04T22:48:48.942Z,15.47
2018-06-04T22:51:18.062Z,15.60
2018-06-04T22:53:46.644Z,16.73
2018-06-04T22:56:15.058Z,15.37
2018-06-04T22:58:44.874Z,15.80
2018-06-04T23:01:13.314Z,17.00
2018-06-04T23:03:43.021Z,16.00
2018-06-04T23:06:12.437Z,17.87
2018-06-04T23:08:40.788Z,16.63
2018-06-04T23:11:09.160Z,17.13
2018-06-04T23:13:38.274Z,16.97
2018-06-04T23:16:06.653Z,16.87
2018-06-04T23:18:35.013Z,17.47
2018-06-04T23:21:04.162Z,19.23
2018-06-04T23:23:32.525Z,17.97
2018-06-04T23:26:00.898Z,18.63
2018-06-04T23:28:29.237Z,16.40
2018-06-04T23:30:58.555Z,19.40
2018-06-04T23:33:26.917Z,17.10
2018-06-04T23:35:55.394Z,17.43
2018-06-04T23:38:23.748Z,16.83
2018-06-04T23:40:52.215Z,17.67
2018-06-04T23:43:20.574Z,17.83
2018-06-04T23:45:48.917Z,16.97
2018-06-04T23:48:18.031Z,18.07
2018-06-04T23:50:46.401Z,18.27
2018-06-04T23:53:15.515Z,18.33
2018-06-04T23:55:43.864Z,19.67
2018-06-04T23:58:12.255Z,19.07
